Time;durP1;ratioP1;P1;durP2;ratioP2;P2;SDS_P1;SDS_P2;PMS_P1;PMS_P2;Temp;Humidity;BMP_temperature;BMP_pressure;BME280_temperature;BME280_humidity;BME280_pressure;Samples;Min_cycle;Max_cycle;Signal;HPM_P1;HPM_P2
2023/01/24 00:01:00;;;;;;;11.40;10.20;;;;;;;;;;6147078;23;20755;-71
2023/01/24 00:03:26;;;;;;;14.30;9.83;;;;;;;;;;6179012;23;20378;-71
2023/01/24 00:05:51;;;;;;;12.67;10.13;;;;;;;;;;6181493;23;20143;-73
2023/01/24 00:08:22;;;;;;;13.70;11.13;;;;;;;;;;6180651;23;20387;-73
2023/01/24 00:10:48;;;;;;;12.23;10.93;;;;;;;;;;6181012;23;20172;-75
2023/01/24 00:13:14;;;;;;;11.37;10.17;;;;;;;;;;6181585;23;20688;-74
2023/01/24 00:15:39;;;;;;;11.87;10.27;;;;;;;;;;6180599;23;20485;-74
2023/01/24 00:18:05;;;;;;;11.50;10.30;;;;;;;;;;6180099;23;20372;-73
2023/01/24 00:20:30;;;;;;;15.07;10.00;;;;;;;;;;6180318;23;20195;-74
2023/01/24 00:22:55;;;;;;;12.13;10.80;;;;;;;;;;6181191;23;20580;-75
2023/01/24 00:25:21;;;;;;;13.83;11.70;;;;;;;;;;6182029;23;20223;-73
2023/01/24 00:27:46;;;;;;;11.50;10.27;;;;;;;;;;6180100;23;20734;-73
2023/01/24 00:30:12;;;;;;;13.07;11.67;;;;;;;;;;6181072;23;20164;-75
2023/01/24 00:32:40;;;;;;;12.47;11.17;;;;;;;;;;6180492;23;20149;-73
2023/01/24 00:35:06;;;;;;;12.70;11.13;;;;;;;;;;6179556;23;20162;-72
2023/01/24 00:37:32;;;;;;;14.33;12.10;;;;;;;;;;6178782;23;20376;-72
2023/01/24 00:39:57;;;;;;;12.43;10.77;;;;;;;;;;6179132;23;20420;-71
2023/01/24 00:42:22;;;;;;;13.37;11.90;;;;;;;;;;6180060;23;20145;-72
2023/01/24 00:44:48;;;;;;;13.60;11.77;;;;;;;;;;6178618;23;20547;-72
2023/01/24 00:47:13;;;;;;;14.60;12.77;;;;;;;;;;6179497;23;20168;-71
2023/01/24 00:49:38;;;;;;;14.27;12.63;;;;;;;;;;6176750;23;20196;-72
2023/01/24 00:52:04;;;;;;;13.10;11.80;;;;;;;;;;6180259;23;20511;-72
2023/01/24 00:54:29;;;;;;;15.50;12.43;;;;;;;;;;6179004;23;20148;-72
2023/01/24 00:56:54;;;;;;;13.27;11.53;;;;;;;;;;6179221;23;20156;-72
2023/01/24 00:59:20;;;;;;;14.07;12.40;;;;;;;;;;6178247;23;20195;-71
2023/01/24 01:01:45;;;;;;;14.50;12.50;;;;;;;;;;6157032;23;20251;-72
2023/01/24 01:04:10;;;;;;;15.50;12.07;;;;;;;;;;6151206;23;20588;-72
2023/01/24 01:06:36;;;;;;;13.80;12.17;;;;;;;;;;6124896;23;20800;-72
2023/01/24 01:09:01;;;;;;;16.17;12.53;;;;;;;;;;6150058;23;20153;-72
2023/01/24 01:11:27;;;;;;;14.03;12.53;;;;;;;;;;6151038;23;20608;-72
2023/01/24 01:13:56;;;;;;;14.93;12.87;;;;;;;;;;6124470;23;20185;-73
2023/01/24 01:16:22;;;;;;;20.60;13.03;;;;;;;;;;6150747;23;20165;-73
2023/01/24 01:18:48;;;;;;;14.47;12.40;;;;;;;;;;6150152;23;20492;-76
2023/01/24 01:21:16;;;;;;;15.27;13.20;;;;;;;;;;6151192;23;20448;-74
2023/01/24 01:23:41;;;;;;;14.60;13.07;;;;;;;;;;6123038;23;20372;-72
2023/01/24 01:26:09;;;;;;;14.37;12.80;;;;;;;;;;6123904;23;20706;-75
2023/01/24 01:28:35;;;;;;;15.30;13.70;;;;;;;;;;6148722;23;20609;-73
2023/01/24 01:31:01;;;;;;;14.90;13.30;;;;;;;;;;6123910;23;20397;-75
2023/01/24 01:33:26;;;;;;;18.80;14.80;;;;;;;;;;6150822;23;20782;-72
2023/01/24 01:35:51;;;;;;;15.93;13.73;;;;;;;;;;6124895;23;20156;-73
2023/01/24 01:38:17;;;;;;;14.73;13.10;;;;;;;;;;6123812;23;20551;-72
2023/01/24 01:40:43;;;;;;;15.13;13.10;;;;;;;;;;6150943;23;20497;-73
2023/01/24 01:43:12;;;;;;;17.47;13.43;;;;;;;;;;6150600;23;20373;-74
2023/01/24 01:45:42;;;;;;;17.70;14.67;;;;;;;;;;6150209;23;20236;-73
2023/01/24 01:48:17;;;;;;;17.13;13.73;;;;;;;;;;6149021;23;20369;-75
2023/01/24 01:50:44;;;;;;;18.27;14.13;;;;;;;;;;6122936;23;20463;-72
2023/01/24 01:53:11;;;;;;;16.23;13.43;;;;;;;;;;6149920;23;20376;-72
2023/01/24 01:55:38;;;;;;;16.93;13.63;;;;;;;;;;6149927;23;20408;-72
2023/01/24 01:58:07;;;;;;;15.93;13.00;;;;;;;;;;6148104;23;20388;-72
2023/01/24 02:00:32;;;;;;;16.80;14.87;;;;;;;;;;6149413;23;20439;-74
2023/01/24 02:03:47;;;;;;;15.90;13.47;;;;;;;;;;6150285;23;20460;-73
2023/01/24 02:05:48;;;;;;;16.47;13.77;;;;;;;;;;6130954;23;20145;-72
2023/01/24 02:08:16;;;;;;;14.80;13.20;;;;;;;;;;6150536;23;20836;-73
2023/01/24 02:13:25;;;;;;;14.77;13.10;;;;;;;;;;6149895;23;21083;-72
2023/01/24 02:16:02;;;;;;;14.57;13.07;;;;;;;;;;6151172;23;20365;-72
2023/01/24 02:18:28;;;;;;;16.20;13.50;;;;;;;;;;6124960;23;20156;-73
2023/01/24 02:20:53;;;;;;;16.73;12.87;;;;;;;;;;6124770;23;20436;-71
2023/01/24 02:23:30;;;;;;;14.47;12.97;;;;;;;;;;6151504;23;20369;-73
2023/01/24 02:26:04;;;;;;;16.43;14.50;;;;;;;;;;6151350;23;20135;-73
2023/01/24 02:28:30;;;;;;;15.20;13.60;;;;;;;;;;6123922;23;21006;-72
2023/01/24 02:30:59;;;;;;;15.63;13.57;;;;;;;;;;6150950;23;20389;-73
2023/01/24 02:33:24;;;;;;;16.17;13.80;;;;;;;;;;6150448;23;20208;-73
2023/01/24 02:35:49;;;;;;;14.80;12.30;;;;;;;;;;6150869;23;20793;-75
2023/01/24 02:38:17;;;;;;;14.97;12.60;;;;;;;;;;6150152;23;20160;-71
2023/01/24 02:40:44;;;;;;;16.00;13.77;;;;;;;;;;6151201;23;20173;-74
2023/01/24 02:43:11;;;;;;;17.07;13.77;;;;;;;;;;6151097;23;20782;-72
2023/01/24 02:45:37;;;;;;;16.13;13.70;;;;;;;;;;6149826;23;20424;-73
2023/01/24 02:48:03;;;;;;;15.83;13.03;;;;;;;;;;6150188;23;20428;-72
2023/01/24 02:53:29;;;;;;;15.67;13.67;;;;;;;;;;6151564;23;20659;-71
2023/01/24 02:53:30;;;;;;;15.97;13.40;;;;;;;;;;6151441;23;20134;-72
2023/01/24 02:58:40;;;;;;;14.53;12.83;;;;;;;;;;6150334;23;20356;-73
2023/01/24 03:01:05;;;;;;;15.60;13.77;;;;;;;;;;6149115;23;20777;-73
2023/01/24 03:03:30;;;;;;;16.40;13.03;;;;;;;;;;6150124;23;20157;-73
2023/01/24 03:05:56;;;;;;;15.30;13.37;;;;;;;;;;6123849;23;20560;-74
2023/01/24 03:08:25;;;;;;;16.93;13.60;;;;;;;;;;6148362;23;20156;-73
2023/01/24 03:10:50;;;;;;;16.07;14.30;;;;;;;;;;6123656;23;20192;-74
2023/01/24 03:35:08;;;;;;;14.27;12.73;;;;;;;;;;6151998;23;20835;-73
2023/01/24 03:40:17;;;;;;;13.90;12.40;;;;;;;;;;6151272;23;20191;-71
2023/01/24 03:42:48;;;;;;;15.63;13.43;;;;;;;;;;6152228;23;20740;-73
2023/01/24 03:45:18;;;;;;;14.47;12.53;;;;;;;;;;6151651;23;20137;-73
2023/01/24 03:47:45;;;;;;;14.00;12.03;;;;;;;;;;6150797;23;20369;-72
2023/01/24 03:52:55;;;;;;;16.80;13.20;;;;;;;;;;6151862;23;20372;-72
2023/01/24 03:55:20;;;;;;;13.30;11.90;;;;;;;;;;6151969;23;20820;-73
2023/01/24 03:57:47;;;;;;;13.57;12.13;;;;;;;;;;6124465;23;20615;-73
2023/01/24 04:00:13;;;;;;;14.63;12.57;;;;;;;;;;6149107;23;20529;-74
2023/01/24 04:05:12;;;;;;;13.70;12.27;;;;;;;;;;6235569;23;20175;-68
2023/01/24 04:07:37;;;;;;;13.30;11.57;;;;;;;;;;6240769;23;20842;-67
2023/01/24 04:10:02;;;;;;;13.23;11.67;;;;;;;;;;6239187;23;20432;-66
2023/01/24 04:12:28;;;;;;;14.00;12.30;;;;;;;;;;6241380;23;20163;-67
2023/01/24 04:14:53;;;;;;;15.60;12.33;;;;;;;;;;6239432;23;20179;-66
2023/01/24 04:17:18;;;;;;;13.67;11.20;;;;;;;;;;6240168;23;20154;-67
2023/01/24 04:19:44;;;;;;;12.80;11.40;;;;;;;;;;6213544;23;20179;-65
2023/01/24 04:22:09;;;;;;;11.27;10.07;;;;;;;;;;6241601;23;20176;-66
2023/01/24 04:24:34;;;;;;;10.00;9.00;;;;;;;;;;6239736;23;20265;-66
2023/01/24 04:26:59;;;;;;;12.30;9.40;;;;;;;;;;6213127;23;20151;-67
2023/01/24 04:29:25;;;;;;;11.43;9.80;;;;;;;;;;6212617;23;20187;-66
2023/01/24 04:31:50;;;;;;;11.63;10.43;;;;;;;;;;6213559;23;20162;-66
2023/01/24 04:34:18;;;;;;;13.60;11.50;;;;;;;;;;6238813;23;20214;-65
2023/01/24 04:36:43;;;;;;;13.40;11.07;;;;;;;;;;6215492;23;20221;-66
2023/01/24 04:39:08;;;;;;;11.03;9.93;;;;;;;;;;6240025;23;20366;-67
2023/01/24 04:41:36;;;;;;;11.63;10.40;;;;;;;;;;6212741;23;20436;-66
2023/01/24 04:44:01;;;;;;;11.37;10.27;;;;;;;;;;6240230;23;20147;-67
2023/01/24 04:46:27;;;;;;;11.20;9.93;;;;;;;;;;6212843;23;20416;-66
2023/01/24 04:48:53;;;;;;;11.07;9.13;;;;;;;;;;6240299;23;20594;-66
2023/01/24 04:51:18;;;;;;;11.70;9.93;;;;;;;;;;6240572;23;20365;-65
2023/01/24 04:53:46;;;;;;;10.90;9.70;;;;;;;;;;6240223;23;20236;-66
2023/01/24 04:56:11;;;;;;;11.70;10.60;;;;;;;;;;6213503;23;20159;-66
2023/01/24 04:58:36;;;;;;;10.87;9.77;;;;;;;;;;6213517;23;20776;-66
2023/01/24 05:01:02;;;;;;;11.77;10.57;;;;;;;;;;6214683;23;20564;-66
2023/01/24 05:03:27;;;;;;;11.10;9.90;;;;;;;;;;6240640;23;20626;-66
2023/01/24 05:05:53;;;;;;;12.33;10.80;;;;;;;;;;6239559;23;20139;-66
2023/01/24 05:08:18;;;;;;;11.37;10.17;;;;;;;;;;6213422;23;20143;-67
2023/01/24 05:10:44;;;;;;;11.80;10.47;;;;;;;;;;6240130;23;20147;-66
2023/01/24 05:13:09;;;;;;;12.40;10.30;;;;;;;;;;6213346;23;20566;-66
2023/01/24 05:15:35;;;;;;;12.97;11.57;;;;;;;;;;6240315;23;20173;-65
2023/01/24 05:18:01;;;;;;;13.40;12.00;;;;;;;;;;6239452;23;20154;-67
2023/01/24 05:20:26;;;;;;;11.90;10.63;;;;;;;;;;6211717;23;20240;-66
2023/01/24 05:22:51;;;;;;;12.87;11.60;;;;;;;;;;6241202;23;20159;-65
2023/01/24 05:25:17;;;;;;;12.47;11.17;;;;;;;;;;6240025;23;20169;-66
2023/01/24 05:27:42;;;;;;;12.70;11.40;;;;;;;;;;6240369;23;20246;-67
2023/01/24 05:30:08;;;;;;;12.63;11.03;;;;;;;;;;6214396;23;20155;-67
2023/01/24 05:32:33;;;;;;;12.50;11.30;;;;;;;;;;6241413;23;20542;-66
2023/01/24 05:34:58;;;;;;;13.00;11.60;;;;;;;;;;6240827;23;20222;-66
2023/01/24 05:37:23;;;;;;;13.33;12.03;;;;;;;;;;6214462;23;20155;-65
2023/01/24 05:39:49;;;;;;;13.60;12.30;;;;;;;;;;6243221;23;20924;-67
2023/01/24 05:42:14;;;;;;;13.93;12.53;;;;;;;;;;6243912;23;20159;-66
2023/01/24 05:44:39;;;;;;;13.50;12.20;;;;;;;;;;6243385;23;20622;-65
2023/01/24 05:47:04;;;;;;;14.17;12.77;;;;;;;;;;6243240;23;20154;-66
2023/01/24 05:49:30;;;;;;;14.43;12.60;;;;;;;;;;6243140;23;20147;-66
2023/01/24 05:51:55;;;;;;;15.30;13.70;;;;;;;;;;6243029;23;20170;-67
2023/01/24 05:54:20;;;;;;;15.50;13.90;;;;;;;;;;6243555;23;20201;-67
2023/01/24 05:56:45;;;;;;;14.90;13.40;;;;;;;;;;6243089;23;20629;-67
2023/01/24 05:59:13;;;;;;;14.00;12.60;;;;;;;;;;6215562;23;20159;-66
2023/01/24 06:01:38;;;;;;;16.17;14.40;;;;;;;;;;6240437;23;20144;-66
2023/01/24 06:04:04;;;;;;;16.73;14.93;;;;;;;;;;6242122;23;20384;-66
2023/01/24 06:06:29;;;;;;;16.50;14.67;;;;;;;;;;6216513;23;20154;-66
2023/01/24 06:08:54;;;;;;;17.60;15.80;;;;;;;;;;6214396;23;20247;-66
2023/01/24 06:11:23;;;;;;;17.83;15.87;;;;;;;;;;6241203;23;20147;-66
2023/01/24 06:13:49;;;;;;;17.67;15.87;;;;;;;;;;6211772;23;20210;-66
2023/01/24 06:16:19;;;;;;;17.03;15.23;;;;;;;;;;6241550;23;20366;-66
2023/01/24 06:18:44;;;;;;;17.70;15.90;;;;;;;;;;6240818;23;20151;-66
2023/01/24 06:21:16;;;;;;;18.03;15.83;;;;;;;;;;6241979;23;20727;-67
2023/01/24 06:23:41;;;;;;;17.17;14.50;;;;;;;;;;6216618;23;20210;-67
2023/01/24 06:26:08;;;;;;;17.03;15.30;;;;;;;;;;6241199;23;20696;-66
2023/01/24 06:28:33;;;;;;;18.13;16.13;;;;;;;;;;6241455;23;20147;-66
2023/01/24 06:31:08;;;;;;;16.67;14.97;;;;;;;;;;6238441;23;20448;-66
2023/01/24 06:33:36;;;;;;;17.70;15.80;;;;;;;;;;6242715;23;20166;-67
2023/01/24 06:36:08;;;;;;;19.20;17.20;;;;;;;;;;6242486;23;20849;-67
2023/01/24 06:38:33;;;;;;;18.67;16.77;;;;;;;;;;6214367;23;20382;-67
2023/01/24 06:41:01;;;;;;;18.60;16.50;;;;;;;;;;6242933;23;20412;-66
2023/01/24 06:43:27;;;;;;;18.60;16.60;;;;;;;;;;6241632;23;20622;-66
2023/01/24 06:45:53;;;;;;;18.57;16.57;;;;;;;;;;6242955;23;20416;-66
2023/01/24 06:48:19;;;;;;;17.43;15.63;;;;;;;;;;6240830;23;20366;-66
2023/01/24 06:50:44;;;;;;;18.17;15.57;;;;;;;;;;6248193;23;20380;-69
2023/01/24 06:53:10;;;;;;;18.30;16.20;;;;;;;;;;6209895;23;20190;-66
2023/01/24 06:55:36;;;;;;;18.90;16.90;;;;;;;;;;6239887;23;20154;-66
2023/01/24 06:58:02;;;;;;;17.93;16.07;;;;;;;;;;6215072;23;20672;-66
2023/01/24 07:00:30;;;;;;;16.40;14.67;;;;;;;;;;6240483;23;20194;-67
2023/01/24 07:03:02;;;;;;;15.17;13.67;;;;;;;;;;6212510;23;20390;-67
2023/01/24 07:05:28;;;;;;;14.10;12.70;;;;;;;;;;6241942;23;20350;-66
2023/01/24 07:07:53;;;;;;;14.43;12.57;;;;;;;;;;6242093;23;20373;-67
2023/01/24 07:10:18;;;;;;;18.40;13.87;;;;;;;;;;6216057;23;20155;-66
2023/01/24 07:12:44;;;;;;;13.60;12.20;;;;;;;;;;6242173;23;20193;-65
2023/01/24 07:15:09;;;;;;;13.80;12.20;;;;;;;;;;6242978;23;20147;-67
2023/01/24 07:17:35;;;;;;;14.00;12.50;;;;;;;;;;6215486;23;20541;-67
2023/01/24 07:20:00;;;;;;;13.70;12.20;;;;;;;;;;6242441;23;20178;-66
2023/01/24 07:22:26;;;;;;;13.90;12.50;;;;;;;;;;6242928;23;20162;-66
2023/01/24 07:24:51;;;;;;;14.73;13.23;;;;;;;;;;6242672;23;20171;-67
2023/01/24 07:27:16;;;;;;;16.10;14.50;;;;;;;;;;6215219;23;20174;-66
2023/01/24 07:29:44;;;;;;;15.07;13.53;;;;;;;;;;6242126;23;20591;-67
2023/01/24 07:32:09;;;;;;;17.77;15.97;;;;;;;;;;6242814;23;20163;-67
2023/01/24 07:34:35;;;;;;;17.87;15.97;;;;;;;;;;6214934;23;20788;-67
2023/01/24 07:37:00;;;;;;;18.30;16.40;;;;;;;;;;6215259;23;20159;-67
2023/01/24 07:39:27;;;;;;;19.63;17.60;;;;;;;;;;6213403;23;20234;-67
2023/01/24 07:44:25;;;;;;;20.30;18.17;;;;;;;;;;6179216;23;20862;-67
2023/01/24 07:46:50;;;;;;;17.23;15.53;;;;;;;;;;6180663;23;20452;-67
2023/01/24 07:49:15;;;;;;;17.20;15.50;;;;;;;;;;6179426;23;20388;-66
2023/01/24 07:51:44;;;;;;;18.17;16.27;;;;;;;;;;6177620;23;20588;-66
2023/01/24 07:54:10;;;;;;;18.00;16.10;;;;;;;;;;6118835;23;21004;-67
2023/01/24 07:56:35;;;;;;;19.27;17.30;;;;;;;;;;6150840;23;20365;-65
2023/01/24 07:59:03;;;;;;;19.30;17.20;;;;;;;;;;6148870;23;20137;-67
2023/01/24 08:01:28;;;;;;;18.90;17.00;;;;;;;;;;6150826;23;20177;-66
2023/01/24 08:03:55;;;;;;;20.10;18.13;;;;;;;;;;6147292;23;20733;-67
2023/01/24 08:06:20;;;;;;;18.13;16.30;;;;;;;;;;6123287;23;20154;-66
2023/01/24 08:08:45;;;;;;;18.90;17.00;;;;;;;;;;6148565;23;20366;-67
2023/01/24 08:11:13;;;;;;;19.03;17.13;;;;;;;;;;6150081;23;20153;-67
2023/01/24 08:13:38;;;;;;;17.83;15.93;;;;;;;;;;6149665;23;20639;-66
2023/01/24 08:16:04;;;;;;;19.63;17.53;;;;;;;;;;6151664;23;20364;-67
2023/01/24 08:18:29;;;;;;;18.10;16.20;;;;;;;;;;6149231;23;20187;-66
2023/01/24 08:20:55;;;;;;;18.53;16.70;;;;;;;;;;6123502;23;20181;-66
2023/01/24 08:23:20;;;;;;;19.33;17.43;;;;;;;;;;6124080;23;20173;-67
2023/01/24 08:25:46;;;;;;;17.33;15.63;;;;;;;;;;6150013;23;20366;-67
2023/01/24 08:28:11;;;;;;;17.07;15.23;;;;;;;;;;6122303;23;20152;-66
2023/01/24 08:30:36;;;;;;;19.17;17.17;;;;;;;;;;6148656;23;20235;-67
2023/01/24 08:33:02;;;;;;;17.90;16.00;;;;;;;;;;6151289;23;20192;-67
2023/01/24 08:35:28;;;;;;;15.60;14.00;;;;;;;;;;6151429;23;20228;-67
2023/01/24 08:37:53;;;;;;;14.77;13.20;;;;;;;;;;6151119;23;20373;-65
2023/01/24 08:40:19;;;;;;;16.23;14.53;;;;;;;;;;6151828;23;20644;-67
2023/01/24 08:42:44;;;;;;;16.80;15.00;;;;;;;;;;6151215;23;20212;-67
2023/01/24 08:45:09;;;;;;;18.07;16.17;;;;;;;;;;6124101;23;20196;-68
2023/01/24 08:47:34;;;;;;;16.60;14.90;;;;;;;;;;6150874;23;20149;-67
2023/01/24 08:50:00;;;;;;;16.93;15.23;;;;;;;;;;6151632;23;20236;-66
2023/01/24 08:52:25;;;;;;;17.43;15.37;;;;;;;;;;6150663;23;20203;-67
2023/01/24 08:54:50;;;;;;;17.73;15.97;;;;;;;;;;6149906;23;20495;-67
2023/01/24 08:57:15;;;;;;;15.50;13.90;;;;;;;;;;6148113;23;20149;-67
2023/01/24 08:59:41;;;;;;;15.13;13.43;;;;;;;;;;6125155;23;20628;-67
2023/01/24 09:02:06;;;;;;;14.37;12.90;;;;;;;;;;6148458;23;20165;-67
2023/01/24 09:04:31;;;;;;;13.70;12.40;;;;;;;;;;6124295;23;20203;-67
2023/01/24 09:06:57;;;;;;;13.23;11.93;;;;;;;;;;6125123;23;20149;-67
2023/01/24 09:09:24;;;;;;;12.50;11.30;;;;;;;;;;6150218;23;20218;-67
2023/01/24 09:11:49;;;;;;;12.50;11.23;;;;;;;;;;6149907;23;20141;-67
2023/01/24 09:14:14;;;;;;;12.47;11.27;;;;;;;;;;6125044;23;20427;-68
2023/01/24 09:16:40;;;;;;;14.30;12.43;;;;;;;;;;6124213;23;20232;-67
2023/01/24 09:19:11;;;;;;;12.83;11.53;;;;;;;;;;6149316;23;20157;-67
2023/01/24 09:21:36;;;;;;;12.20;10.90;;;;;;;;;;6148193;23;20588;-67
2023/01/24 09:24:01;;;;;;;11.80;10.57;;;;;;;;;;6147596;23;20392;-67
2023/01/24 09:26:27;;;;;;;13.83;11.60;;;;;;;;;;6151227;23;20210;-68
2023/01/24 09:28:52;;;;;;;11.70;10.60;;;;;;;;;;6150900;23;20189;-67
2023/01/24 09:31:17;;;;;;;12.20;11.00;;;;;;;;;;6149879;23;20236;-67
2023/01/24 09:33:42;;;;;;;12.73;11.43;;;;;;;;;;6150045;23;20231;-67
2023/01/24 09:36:08;;;;;;;12.47;11.17;;;;;;;;;;6122938;23;20157;-67
2023/01/24 09:38:33;;;;;;;12.97;11.57;;;;;;;;;;6149664;23;20616;-67
2023/01/24 09:41:07;;;;;;;13.03;11.70;;;;;;;;;;6147782;23;20176;-67
2023/01/24 09:43:48;;;;;;;12.70;11.40;;;;;;;;;;6149212;23;20656;-67
2023/01/24 09:46:19;;;;;;;14.63;11.63;;;;;;;;;;6150619;23;21202;-67
2023/01/24 09:48:47;;;;;;;14.13;11.90;;;;;;;;;;6149713;23;20365;-67
2023/01/24 09:51:19;;;;;;;13.30;11.90;;;;;;;;;;6123221;23;20737;-66
2023/01/24 09:53:45;;;;;;;13.80;11.50;;;;;;;;;;6149755;23;20381;-67
2023/01/24 09:56:33;;;;;;;12.10;10.80;;;;;;;;;;6124152;23;20377;-67
2023/01/24 09:59:18;;;;;;;12.37;11.07;;;;;;;;;;6150953;23;20397;-69
2023/01/24 10:01:44;;;;;;;11.33;10.13;;;;;;;;;;6135064;23;20404;-67
2023/01/24 10:04:19;;;;;;;12.33;10.63;;;;;;;;;;6151468;23;20850;-67
2023/01/24 10:06:56;;;;;;;11.37;10.20;;;;;;;;;;6150922;23;20172;-66
2023/01/24 10:09:44;;;;;;;12.80;11.00;;;;;;;;;;6150957;23;20345;-67
2023/01/24 10:12:12;;;;;;;11.47;10.23;;;;;;;;;;6093735;23;20412;-67
2023/01/24 10:14:43;;;;;;;14.17;11.57;;;;;;;;;;6150954;23;20423;-67
2023/01/24 10:17:27;;;;;;;11.63;10.17;;;;;;;;;;6150633;23;20927;-67
2023/01/24 10:20:01;;;;;;;11.90;10.63;;;;;;;;;;6124715;23;20416;-67
2023/01/24 10:22:38;;;;;;;11.57;10.37;;;;;;;;;;6149977;23;20407;-67
2023/01/24 10:25:11;;;;;;;11.67;10.37;;;;;;;;;;6152775;23;20741;-66
2023/01/24 10:27:40;;;;;;;12.20;10.83;;;;;;;;;;6152091;23;20364;-67
2023/01/24 10:30:16;;;;;;;13.03;11.63;;;;;;;;;;6153263;23;21070;-67
2023/01/24 10:32:43;;;;;;;12.73;10.93;;;;;;;;;;6126669;23;20483;-67
2023/01/24 10:35:12;;;;;;;11.87;10.30;;;;;;;;;;6126452;23;20380;-67
2023/01/24 10:37:41;;;;;;;11.20;10.03;;;;;;;;;;6126052;23;20381;-67
2023/01/24 10:40:13;;;;;;;11.60;10.20;;;;;;;;;;6152456;23;20420;-67
2023/01/24 10:42:39;;;;;;;13.37;11.40;;;;;;;;;;6152547;23;20480;-67
2023/01/24 10:45:24;;;;;;;11.87;10.60;;;;;;;;;;6126423;23;20410;-67
2023/01/24 10:48:01;;;;;;;13.33;10.40;;;;;;;;;;6152433;23;20141;-67
2023/01/24 10:50:33;;;;;;;13.57;11.23;;;;;;;;;;6152711;23;20357;-67
2023/01/24 10:53:10;;;;;;;10.97;9.87;;;;;;;;;;6126549;23;20782;-67
2023/01/24 10:55:37;;;;;;;11.73;10.53;;;;;;;;;;6125849;23;20895;-67
2023/01/24 10:58:18;;;;;;;13.90;11.57;;;;;;;;;;6149830;23;20695;-66
2023/01/24 11:00:45;;;;;;;11.47;10.27;;;;;;;;;;6150443;23;20415;-67
2023/01/24 11:03:18;;;;;;;15.93;11.77;;;;;;;;;;6149983;23;20395;-67
2023/01/24 11:05:45;;;;;;;12.07;10.87;;;;;;;;;;6126372;23;20464;-67
2023/01/24 11:08:21;;;;;;;11.50;10.30;;;;;;;;;;6151858;23;20756;-67
2023/01/24 11:10:49;;;;;;;11.80;10.43;;;;;;;;;;6149969;23;20717;-67
2023/01/24 11:13:18;;;;;;;12.13;10.73;;;;;;;;;;6150603;23;20393;-67
2023/01/24 11:15:46;;;;;;;12.40;11.10;;;;;;;;;;6123445;23;20384;-68
2023/01/24 11:18:11;;;;;;;13.93;11.37;;;;;;;;;;6149369;23;20459;-67
2023/01/24 11:20:36;;;;;;;13.53;12.03;;;;;;;;;;6152324;23;20451;-67
2023/01/24 11:23:03;;;;;;;13.37;11.57;;;;;;;;;;6151856;23;20544;-67
2023/01/24 11:25:28;;;;;;;13.87;11.90;;;;;;;;;;6126430;23;20284;-67
2023/01/24 11:27:59;;;;;;;13.30;11.90;;;;;;;;;;6151792;23;20400;-67
2023/01/24 11:30:25;;;;;;;12.97;10.87;;;;;;;;;;6151424;23;20157;-65
2023/01/24 11:32:50;;;;;;;14.63;10.90;;;;;;;;;;6152304;23;20389;-67
2023/01/24 11:35:15;;;;;;;12.83;11.33;;;;;;;;;;6152228;23;20401;-67
2023/01/24 11:37:59;;;;;;;12.27;10.97;;;;;;;;;;6125298;23;20317;-67
2023/01/24 11:40:34;;;;;;;11.20;9.90;;;;;;;;;;6125996;23;20238;-67
2023/01/24 11:43:15;;;;;;;13.27;11.57;;;;;;;;;;6151526;23;20573;-68
2023/01/24 11:45:54;;;;;;;13.63;10.73;;;;;;;;;;6152330;23;20376;-67
2023/01/24 11:48:25;;;;;;;12.37;11.03;;;;;;;;;;6151925;23;20361;-66
2023/01/24 11:51:00;;;;;;;13.00;11.47;;;;;;;;;;6152574;23;20377;-68
2023/01/24 11:53:25;;;;;;;12.13;10.70;;;;;;;;;;6125936;23;20396;-67
2023/01/24 11:56:01;;;;;;;13.30;11.87;;;;;;;;;;6152453;23;20431;-67
2023/01/24 11:58:47;;;;;;;12.70;11.40;;;;;;;;;;6151743;23;20148;-67
2023/01/24 12:01:17;;;;;;;13.10;11.63;;;;;;;;;;6152035;23;20404;-67
2023/01/24 12:03:54;;;;;;;13.70;12.30;;;;;;;;;;6152106;23;20797;-67
2023/01/24 12:06:25;;;;;;;14.30;11.60;;;;;;;;;;6151862;23;20365;-66
2023/01/24 12:09:11;;;;;;;14.13;12.50;;;;;;;;;;6125479;23;20373;-67
2023/01/24 12:12:03;;;;;;;15.13;11.33;;;;;;;;;;6152369;23;20368;-67
2023/01/24 12:14:28;;;;;;;13.20;11.33;;;;;;;;;;6120385;23;20372;-66
2023/01/24 12:17:02;;;;;;;12.47;11.17;;;;;;;;;;6125251;23;20383;-66
2023/01/24 12:19:50;;;;;;;14.67;12.10;;;;;;;;;;6150738;23;20160;-67
2023/01/24 12:22:19;;;;;;;12.10;10.90;;;;;;;;;;6122473;23;20426;-67
2023/01/24 12:25:05;;;;;;;13.63;12.23;;;;;;;;;;6150451;23;20369;-66
2023/01/24 12:27:34;;;;;;;13.10;10.90;;;;;;;;;;6148966;23;20361;-67
2023/01/24 12:30:03;;;;;;;13.90;11.80;;;;;;;;;;6124288;23;20515;-67
2023/01/24 12:32:28;;;;;;;14.50;12.27;;;;;;;;;;6123485;23;20518;-67
2023/01/24 12:35:13;;;;;;;13.20;11.83;;;;;;;;;;6150221;23;20372;-66
2023/01/24 12:37:45;;;;;;;15.30;12.70;;;;;;;;;;6151589;23;20172;-67
2023/01/24 12:40:13;;;;;;;13.77;11.80;;;;;;;;;;6151941;23;20423;-67
2023/01/24 12:42:57;;;;;;;13.83;11.53;;;;;;;;;;6128950;23;20471;-66
2023/01/24 12:45:26;;;;;;;14.37;11.10;;;;;;;;;;6149342;23;20381;-67
2023/01/24 12:47:54;;;;;;;13.90;12.30;;;;;;;;;;6149472;23;20377;-67
2023/01/24 12:50:31;;;;;;;14.73;12.53;;;;;;;;;;6152028;23;20399;-66
2023/01/24 12:52:59;;;;;;;12.10;10.43;;;;;;;;;;6152756;23;20443;-66
2023/01/24 12:55:27;;;;;;;12.50;11.20;;;;;;;;;;6149884;23;20381;-67
2023/01/24 12:58:01;;;;;;;13.40;11.50;;;;;;;;;;6149620;23;20377;-67
2023/01/24 13:00:32;;;;;;;13.93;10.83;;;;;;;;;;6149517;23;20438;-67
2023/01/24 13:03:09;;;;;;;13.20;11.80;;;;;;;;;;6150288;23;20897;-67
2023/01/24 13:05:37;;;;;;;13.53;11.37;;;;;;;;;;6151400;23;20349;-66
2023/01/24 13:08:16;;;;;;;13.30;11.90;;;;;;;;;;6149634;23;20384;-67
2023/01/24 13:11:00;;;;;;;12.83;11.37;;;;;;;;;;6150030;23;20392;-67
2023/01/24 13:13:32;;;;;;;12.90;11.50;;;;;;;;;;6149593;23;20408;-67
2023/01/24 13:16:01;;;;;;;13.30;11.90;;;;;;;;;;6151842;23;20697;-67
2023/01/24 13:18:45;;;;;;;13.73;11.50;;;;;;;;;;6149397;23;20385;-67
2023/01/24 13:21:16;;;;;;;14.90;13.07;;;;;;;;;;6151665;23;20486;-67
2023/01/24 13:23:53;;;;;;;15.63;13.03;;;;;;;;;;6149541;23;20841;-66
2023/01/24 13:26:45;;;;;;;14.30;12.80;;;;;;;;;;6151204;23;20361;-67
2023/01/24 13:29:16;;;;;;;14.30;12.80;;;;;;;;;;6147202;23;20935;-67
2023/01/24 13:31:49;;;;;;;12.87;11.50;;;;;;;;;;6148176;23;20887;-67
2023/01/24 13:34:16;;;;;;;14.23;12.73;;;;;;;;;;6150360;23;20419;-67
2023/01/24 13:36:46;;;;;;;17.30;13.33;;;;;;;;;;6149490;23;20396;-66
2023/01/24 13:39:30;;;;;;;16.67;13.43;;;;;;;;;;6149168;23;20992;-67
2023/01/24 13:42:17;;;;;;;14.83;12.70;;;;;;;;;;6149695;23;20428;-67
2023/01/24 13:44:43;;;;;;;15.07;13.40;;;;;;;;;;6149531;23;20353;-67
2023/01/24 13:47:08;;;;;;;14.60;12.40;;;;;;;;;;6149294;23;20431;-67
2023/01/24 13:49:35;;;;;;;14.20;12.00;;;;;;;;;;6151116;23;20220;-67
2023/01/24 13:52:27;;;;;;;15.50;13.40;;;;;;;;;;6151064;23;20169;-67
2023/01/24 13:54:52;;;;;;;13.03;11.63;;;;;;;;;;6145114;23;20377;-67
2023/01/24 13:57:20;;;;;;;14.80;13.23;;;;;;;;;;6150690;23;20796;-67
2023/01/24 14:00:08;;;;;;;15.70;14.03;;;;;;;;;;6152650;23;20261;-67
2023/01/24 14:02:36;;;;;;;14.27;12.77;;;;;;;;;;6153548;23;20455;-66
2023/01/24 14:05:02;;;;;;;14.20;12.70;;;;;;;;;;6152082;23;20377;-67
2023/01/24 14:07:45;;;;;;;16.07;14.00;;;;;;;;;;6153142;23;20459;-67
2023/01/24 14:10:10;;;;;;;15.47;13.70;;;;;;;;;;6153283;23;20660;-67
2023/01/24 14:12:37;;;;;;;15.50;13.10;;;;;;;;;;6152075;23;20479;-67
2023/01/24 14:15:05;;;;;;;15.87;14.17;;;;;;;;;;6152359;23;20231;-67
2023/01/24 14:17:40;;;;;;;14.63;12.97;;;;;;;;;;6152131;23;20508;-67
2023/01/24 14:20:15;;;;;;;14.60;13.10;;;;;;;;;;6149223;23;20420;-67
2023/01/24 14:22:44;;;;;;;15.30;13.20;;;;;;;;;;6151739;23;20380;-67
2023/01/24 14:25:28;;;;;;;17.03;15.23;;;;;;;;;;6152336;23;20361;-67
2023/01/24 14:27:59;;;;;;;16.17;14.47;;;;;;;;;;6149346;23;20720;-66
2023/01/24 14:30:38;;;;;;;19.30;15.30;;;;;;;;;;6149703;23;20373;-67
2023/01/24 14:33:06;;;;;;;18.23;14.23;;;;;;;;;;6151993;23;20794;-67
2023/01/24 14:35:35;;;;;;;18.50;15.93;;;;;;;;;;6153317;23;20774;-67
2023/01/24 14:38:10;;;;;;;18.23;15.10;;;;;;;;;;6152500;23;20373;-67
2023/01/24 14:40:38;;;;;;;17.93;14.83;;;;;;;;;;6153006;23;20423;-67
2023/01/24 14:43:05;;;;;;;16.87;15.07;;;;;;;;;;6152417;23;20759;-67
2023/01/24 14:45:31;;;;;;;15.87;13.43;;;;;;;;;;6152378;23;20372;-66
2023/01/24 14:47:57;;;;;;;16.30;14.60;;;;;;;;;;6126682;23;20381;-67
2023/01/24 14:50:23;;;;;;;17.73;15.03;;;;;;;;;;6153590;23;20503;-67
2023/01/24 14:52:48;;;;;;;15.83;14.00;;;;;;;;;;6153031;23;20427;-67
2023/01/24 14:55:16;;;;;;;17.30;15.00;;;;;;;;;;6127075;23;20171;-67
2023/01/24 14:57:42;;;;;;;16.90;14.60;;;;;;;;;;6152438;23;20145;-67
2023/01/24 15:00:07;;;;;;;16.97;14.63;;;;;;;;;;6126186;23;20813;-67
2023/01/24 15:02:34;;;;;;;17.93;15.80;;;;;;;;;;6151498;23;20169;-67
2023/01/24 15:05:01;;;;;;;17.90;15.90;;;;;;;;;;6125823;23;20184;-67